createdAt,value
2023-03-01T00:01:49.351Z,16.68
2023-03-01T00:04:17.875Z,16.68
2023-03-01T00:06:49.488Z,16.65
2023-03-01T00:09:17.934Z,16.65
2023-03-01T00:11:46.711Z,16.64
2023-03-01T00:14:17.440Z,16.61
2023-03-01T00:16:46.416Z,16.53
2023-03-01T00:19:18.315Z,16.60
2023-03-01T00:21:47.529Z,16.57
2023-03-01T00:24:16.053Z,16.53
2023-03-01T00:26:44.904Z,16.52
2023-03-01T00:29:13.238Z,16.52
2023-03-01T00:31:41.793Z,16.49
2023-03-01T00:34:10.833Z,16.51
2023-03-01T00:36:39.611Z,16.51
2023-03-01T00:39:13.067Z,16.49
2023-03-01T00:41:42.329Z,16.43
2023-03-01T00:44:10.992Z,16.47
2023-03-01T00:46:39.640Z,16.46
2023-03-01T00:49:08.136Z,16.44
2023-03-01T00:51:36.845Z,16.42
2023-03-01T00:54:05.286Z,16.41
2023-03-01T00:56:34.400Z,16.40
2023-03-01T00:59:03.390Z,16.40
2023-03-01T01:01:32.416Z,16.38
2023-03-01T01:04:03.871Z,16.38
2023-03-01T01:06:45.831Z,16.36
2023-03-01T01:09:19.709Z,16.35
2023-03-01T01:11:51.218Z,16.34
2023-03-01T01:14:19.972Z,16.33
2023-03-01T01:16:48.948Z,16.31
2023-03-01T01:19:17.594Z,16.30
2023-03-01T01:21:46.508Z,16.29
2023-03-01T01:24:15.217Z,16.28
2023-03-01T01:26:44.407Z,16.26
2023-03-01T01:29:13.100Z,16.25
2023-03-01T01:31:42.843Z,16.21
2023-03-01T01:34:17.086Z,16.16
2023-03-01T01:36:50.044Z,16.13
2023-03-01T01:39:18.485Z,16.21
2023-03-01T01:41:47.248Z,16.18
2023-03-01T01:44:22.260Z,16.19
2023-03-01T01:47:06.519Z,16.19
2023-03-01T01:49:38.777Z,16.17
2023-03-01T01:52:28.506Z,16.15
2023-03-01T01:55:08.311Z,16.13
2023-03-01T01:57:46.189Z,16.10
2023-03-01T02:00:21.527Z,16.08
2023-03-01T02:02:53.277Z,16.10
2023-03-01T02:05:28.010Z,16.09
2023-03-01T02:07:57.509Z,16.07
2023-03-01T02:10:25.848Z,16.08
2023-03-01T02:12:54.589Z,16.06
2023-03-01T02:15:24.459Z,16.05
2023-03-01T02:17:53.577Z,16.05
2023-03-01T02:20:24.748Z,16.05
2023-03-01T02:22:53.482Z,16.01
2023-03-01T02:26:07.568Z,16.01
2023-03-01T02:28:38.030Z,15.99
2023-03-01T02:31:26.584Z,15.95
2023-03-01T02:33:55.538Z,15.88
2023-03-01T02:36:31.538Z,15.97
2023-03-01T02:39:01.317Z,15.94
2023-03-01T02:41:32.299Z,15.96
2023-03-01T02:44:01.419Z,15.88
2023-03-01T02:46:31.210Z,15.90
2023-03-01T02:49:00.447Z,15.92
2023-03-01T02:51:36.034Z,15.88
2023-03-01T02:54:30.102Z,15.92
2023-03-01T02:56:58.644Z,15.91
2023-03-01T02:59:32.460Z,15.90
2023-03-01T03:02:02.091Z,15.90
2023-03-01T03:04:30.850Z,15.89
2023-03-01T03:06:59.751Z,15.88
2023-03-01T03:09:29.601Z,15.87
2023-03-01T03:11:58.621Z,15.80
2023-03-01T03:14:27.671Z,15.86
2023-03-01T03:16:56.341Z,15.83
2023-03-01T03:19:25.132Z,15.83
2023-03-01T03:21:53.692Z,15.82
2023-03-01T03:24:22.340Z,15.82
2023-03-01T03:26:50.721Z,15.80
2023-03-01T03:29:19.439Z,15.79
2023-03-01T03:31:47.924Z,15.80
2023-03-01T03:34:19.251Z,15.77
2023-03-01T03:36:47.670Z,15.77
2023-03-01T03:39:16.338Z,15.76
2023-03-01T03:41:44.641Z,15.74
2023-03-01T03:44:13.239Z,15.74
2023-03-01T03:46:41.581Z,15.73
2023-03-01T03:49:10.219Z,15.70
2023-03-01T03:51:38.579Z,15.72
2023-03-01T03:54:07.432Z,15.71
2023-03-01T03:56:36.189Z,15.70
2023-03-01T03:59:04.810Z,15.70
2023-03-01T04:01:33.308Z,15.70
2023-03-01T04:04:05.353Z,15.67
2023-03-01T04:06:33.989Z,15.65
2023-03-01T04:09:03.586Z,15.65
2023-03-01T04:11:32.442Z,15.64
2023-03-01T04:14:01.398Z,15.63
2023-03-01T04:16:30.227Z,15.63
2023-03-01T04:19:01.017Z,15.59
2023-03-01T04:21:29.418Z,15.62
2023-03-01T04:23:58.226Z,15.61
2023-03-01T04:26:26.569Z,15.59
2023-03-01T04:28:55.269Z,15.59
2023-03-01T04:31:23.960Z,15.57
2023-03-01T04:33:54.862Z,15.56
2023-03-01T04:36:28.895Z,15.55
2023-03-01T04:38:57.913Z,15.52
2023-03-01T04:41:26.679Z,15.55
2023-03-01T04:43:55.448Z,15.53
2023-03-01T04:46:23.963Z,15.53
2023-03-01T04:48:52.740Z,15.54
2023-03-01T04:51:21.138Z,15.52
2023-03-01T04:53:50.060Z,15.51
2023-03-01T04:56:24.289Z,15.46
2023-03-01T04:58:55.384Z,15.48
2023-03-01T05:01:23.699Z,15.49
2023-03-01T05:03:52.794Z,15.48
2023-03-01T05:06:22.139Z,15.46
2023-03-01T05:08:50.977Z,15.49
2023-03-01T05:11:19.319Z,15.52
2023-03-01T05:13:48.180Z,15.56
2023-03-01T05:16:18.063Z,15.61
2023-03-01T05:18:47.218Z,15.65
2023-03-01T05:21:17.464Z,15.74
2023-03-01T05:23:48.035Z,15.81
2023-03-01T05:26:34.040Z,15.81
2023-03-01T05:29:02.785Z,15.96
2023-03-01T05:31:32.156Z,16.01
2023-03-01T05:34:00.951Z,16.13
2023-03-01T05:36:29.557Z,16.21
2023-03-01T05:38:58.789Z,16.30
2023-03-01T05:41:27.172Z,16.33
2023-03-01T05:43:55.888Z,16.52
2023-03-01T05:46:25.742Z,16.51
2023-03-01T05:48:54.466Z,16.69
2023-03-01T05:51:23.406Z,16.74
2023-03-01T05:53:52.089Z,16.83
2023-03-01T05:56:23.436Z,16.95
2023-03-01T05:58:52.281Z,16.90
2023-03-01T06:01:20.665Z,16.95
2023-03-01T06:03:49.733Z,17.02
2023-03-01T06:06:18.112Z,17.18
2023-03-01T06:08:46.970Z,17.26
2023-03-01T06:11:15.380Z,17.32
2023-03-01T06:13:45.122Z,17.44
2023-03-01T06:16:14.057Z,17.47
2023-03-01T06:18:42.960Z,17.53
2023-03-01T06:21:11.382Z,17.53
2023-03-01T06:23:39.972Z,17.51
2023-03-01T06:26:08.917Z,17.41
2023-03-01T06:28:37.935Z,17.43
2023-03-01T06:31:09.968Z,17.44
2023-03-01T06:33:38.816Z,17.41
2023-03-01T06:36:08.144Z,17.23
2023-03-01T06:38:36.991Z,17.30
2023-03-01T06:41:05.512Z,17.27
2023-03-01T06:43:34.515Z,17.21
2023-03-01T06:46:08.141Z,17.14
2023-03-01T06:48:36.927Z,17.13
2023-03-01T06:51:05.491Z,17.07
2023-03-01T06:53:34.492Z,17.08
2023-03-01T06:56:02.732Z,17.02
2023-03-01T06:58:31.613Z,17.02
2023-03-01T07:01:00.090Z,16.95
2023-03-01T07:03:28.825Z,16.98
2023-03-01T07:05:57.340Z,16.93
2023-03-01T07:08:26.113Z,16.87
2023-03-01T07:10:58.847Z,16.83
2023-03-01T07:13:27.708Z,16.81
2023-03-01T07:15:56.088Z,16.78
2023-03-01T07:18:25.007Z,16.71
2023-03-01T07:20:53.493Z,16.71
2023-03-01T07:23:22.469Z,16.70
2023-03-01T07:25:56.918Z,16.68
2023-03-01T07:28:25.839Z,16.65
2023-03-01T07:30:54.376Z,16.63
2023-03-01T07:33:23.107Z,16.57
2023-03-01T07:36:01.088Z,16.57
2023-03-01T07:38:30.302Z,16.58
2023-03-01T07:41:03.139Z,16.53
2023-03-01T07:43:32.022Z,16.51
2023-03-01T07:46:02.084Z,16.48
2023-03-01T07:48:31.465Z,16.49
2023-03-01T07:51:05.056Z,16.46
2023-03-01T07:53:35.420Z,16.41
2023-03-01T07:56:12.206Z,16.35
2023-03-01T07:58:43.735Z,16.41
2023-03-01T08:01:15.390Z,16.35
2023-03-01T08:03:44.929Z,16.35
2023-03-01T08:06:15.197Z,16.33
2023-03-01T08:08:44.160Z,16.34
2023-03-01T08:11:13.997Z,16.30
2023-03-01T08:13:43.677Z,16.30
2023-03-01T08:16:14.771Z,16.24
2023-03-01T08:18:44.364Z,16.21
2023-03-01T08:21:15.421Z,16.18
2023-03-01T08:23:44.437Z,16.20
2023-03-01T08:26:19.668Z,16.19
2023-03-01T08:28:49.545Z,16.23
2023-03-01T08:31:40.417Z,16.22
2023-03-01T08:34:12.690Z,16.17
2023-03-01T08:36:43.611Z,16.17
2023-03-01T08:39:14.587Z,16.12
2023-03-01T08:41:43.237Z,16.10
2023-03-01T08:44:13.177Z,16.02
2023-03-01T08:46:42.663Z,16.05
2023-03-01T08:49:15.448Z,16.03
2023-03-01T08:51:44.850Z,15.96
2023-03-01T08:54:19.765Z,15.97
2023-03-01T08:56:48.326Z,15.92
2023-03-01T08:59:18.443Z,15.93
2023-03-01T09:01:47.041Z,15.89
2023-03-01T09:04:16.489Z,15.90
2023-03-01T09:06:44.999Z,15.89
2023-03-01T09:09:18.443Z,15.89
2023-03-01T09:11:47.598Z,15.84
2023-03-01T09:14:16.657Z,15.86
2023-03-01T09:16:45.219Z,15.81
2023-03-01T09:19:14.105Z,15.83
2023-03-01T09:21:42.626Z,15.81
2023-03-01T09:24:15.648Z,15.69
2023-03-01T09:26:48.857Z,15.79
2023-03-01T09:29:19.153Z,15.77
2023-03-01T09:31:47.630Z,15.78
2023-03-01T09:34:20.465Z,15.75
2023-03-01T09:36:48.821Z,15.75
2023-03-01T09:39:19.058Z,15.75
2023-03-01T09:42:05.400Z,15.72
2023-03-01T09:45:07.964Z,15.70
2023-03-01T09:47:37.333Z,15.68
2023-03-01T09:50:18.578Z,15.68
2023-03-01T09:52:52.334Z,15.68
2023-03-01T09:55:29.464Z,15.69
2023-03-01T09:58:22.902Z,15.66
2023-03-01T10:00:51.701Z,15.67
2023-03-01T10:03:38.406Z,15.65
2023-03-01T10:06:34.078Z,15.50
2023-03-01T10:09:18.045Z,15.64
2023-03-01T10:11:49.397Z,15.64
2023-03-01T10:14:38.495Z,15.63
2023-03-01T10:17:36.406Z,15.63
2023-03-01T10:20:48.126Z,15.58
2023-03-01T10:23:16.804Z,15.60
2023-03-01T10:26:25.502Z,15.58
2023-03-01T10:29:03.733Z,15.59
2023-03-01T10:31:52.389Z,15.58
2023-03-01T10:34:28.627Z,15.56
2023-03-01T10:37:11.099Z,15.55
2023-03-01T10:39:56.255Z,15.55
2023-03-01T10:42:32.550Z,15.55
2023-03-01T10:45:35.995Z,15.54
2023-03-01T10:48:14.587Z,15.54
2023-03-01T10:50:46.336Z,15.53
2023-03-01T10:53:35.923Z,15.51
2023-03-01T10:56:14.615Z,15.52
2023-03-01T10:59:04.657Z,15.47
2023-03-01T11:01:36.894Z,15.48
2023-03-01T11:04:08.412Z,15.51
2023-03-01T11:06:43.403Z,15.52
2023-03-01T11:09:25.773Z,15.48
2023-03-01T11:11:59.046Z,15.51
2023-03-01T11:14:31.888Z,15.45
2023-03-01T11:17:16.216Z,15.48
2023-03-01T11:19:54.210Z,15.46
2023-03-01T11:22:29.699Z,15.46
2023-03-01T11:25:09.293Z,15.43
2023-03-01T11:27:43.574Z,15.45
2023-03-01T11:30:28.004Z,15.37
2023-03-01T11:33:13.072Z,15.42
2023-03-01T11:36:08.503Z,15.40
2023-03-01T11:38:37.475Z,15.39
2023-03-01T11:41:19.529Z,15.38
2023-03-01T11:43:55.729Z,15.40
2023-03-01T11:46:33.311Z,15.33
2023-03-01T11:49:26.752Z,15.39
2023-03-01T11:52:15.662Z,15.40
2023-03-01T11:55:30.049Z,15.42
2023-03-01T11:58:26.848Z,15.30
2023-03-01T12:01:25.557Z,15.36
2023-03-01T12:04:24.934Z,15.40
2023-03-01T13:01:16.542Z,15.34
2023-03-01T13:04:28.697Z,15.33
2023-03-01T13:07:12.063Z,15.33
2023-03-01T13:10:33.668Z,15.32
2023-03-01T13:13:26.199Z,15.32
2023-03-01T13:15:55.527Z,15.32
2023-03-01T13:18:24.482Z,15.31
2023-03-01T13:20:58.615Z,15.28
2023-03-01T13:23:37.771Z,15.29
2023-03-01T13:26:26.965Z,15.30
2023-03-01T13:28:58.514Z,15.29
2023-03-01T13:31:27.382Z,15.24
2023-03-01T13:33:57.382Z,15.25
2023-03-01T13:36:30.060Z,15.28
2023-03-01T13:39:04.165Z,15.26
2023-03-01T13:41:44.885Z,15.25
2023-03-01T13:44:40.079Z,15.24
2023-03-01T13:47:09.644Z,15.26
2023-03-01T13:49:59.811Z,15.23
2023-03-01T13:52:55.723Z,15.20
2023-03-01T13:55:43.125Z,15.26
2023-03-01T13:58:22.718Z,15.25
2023-03-01T14:01:04.712Z,15.20
2023-03-01T14:03:35.310Z,15.23
2023-03-01T14:06:15.419Z,15.24
2023-03-01T14:08:47.042Z,15.23
2023-03-01T14:11:26.178Z,15.22
2023-03-01T14:14:19.398Z,15.19
2023-03-01T14:17:24.875Z,15.16
2023-03-01T14:20:21.639Z,15.18
2023-03-01T14:22:53.106Z,15.17
2023-03-01T14:25:31.273Z,15.17
2023-03-01T14:28:14.785Z,15.15
2023-03-01T14:30:57.504Z,15.16
2023-03-01T14:33:42.315Z,15.15
2023-03-01T14:36:12.847Z,15.11
2023-03-01T14:38:46.352Z,15.11
2023-03-01T14:41:26.923Z,15.15
2023-03-01T14:44:08.182Z,15.13
2023-03-01T14:46:39.577Z,15.16
2023-03-01T14:49:16.886Z,15.11
2023-03-01T14:52:03.586Z,15.10
2023-03-01T14:54:45.576Z,15.08
2023-03-01T14:57:23.112Z,15.10
2023-03-01T14:59:57.067Z,15.07
2023-03-01T15:02:29.300Z,15.11
2023-03-01T15:05:01.924Z,15.10
2023-03-01T15:07:35.558Z,15.04
2023-03-01T15:10:06.505Z,15.08
2023-03-01T15:12:40.946Z,15.10
2023-03-01T15:15:48.421Z,15.08
2023-03-01T15:18:23.366Z,15.11
2023-03-01T15:20:51.863Z,15.06
2023-03-01T15:23:28.906Z,15.05
2023-03-01T15:25:57.756Z,15.09
2023-03-01T15:28:44.571Z,15.06
2023-03-01T15:31:24.659Z,15.06
2023-03-01T15:33:53.543Z,15.05
2023-03-01T15:36:44.343Z,15.03
2023-03-01T15:39:38.693Z,15.01
2023-03-01T15:42:13.930Z,15.02
2023-03-01T15:44:48.696Z,14.95
2023-03-01T15:47:51.336Z,14.98
2023-03-01T15:50:28.941Z,14.98
2023-03-01T15:52:58.015Z,14.94
2023-03-01T15:55:30.810Z,14.97
2023-03-01T15:58:24.077Z,14.92
2023-03-01T16:01:01.879Z,14.93
2023-03-01T16:03:31.033Z,14.91
2023-03-01T16:05:59.927Z,14.90
2023-03-01T16:08:28.550Z,14.93
2023-03-01T16:10:57.513Z,14.89
2023-03-01T16:13:28.338Z,14.95
2023-03-01T16:15:58.753Z,15.00
2023-03-01T16:18:27.253Z,15.06
2023-03-01T16:20:56.519Z,15.09
2023-03-01T16:23:26.262Z,15.14
2023-03-01T16:25:55.088Z,15.19
2023-03-01T16:28:23.570Z,15.23
2023-03-01T16:30:52.631Z,15.34
2023-03-01T16:33:28.995Z,15.42
2023-03-01T16:36:11.172Z,15.49
2023-03-01T16:38:39.904Z,15.63
2023-03-01T16:41:17.369Z,15.69
2023-03-01T16:43:47.766Z,15.72
2023-03-01T16:46:29.729Z,15.89
2023-03-01T16:48:58.421Z,15.91
2023-03-01T16:51:27.234Z,16.04
2023-03-01T16:53:55.863Z,16.13
2023-03-01T16:56:24.806Z,16.17
2023-03-01T16:58:53.321Z,16.34
2023-03-01T17:01:25.658Z,16.39
2023-03-01T17:03:54.420Z,16.46
2023-03-01T17:06:24.905Z,16.44
2023-03-01T17:08:53.448Z,16.53
2023-03-01T17:11:22.519Z,16.54
2023-03-01T17:13:51.246Z,16.65
2023-03-01T17:16:21.354Z,16.72
2023-03-01T17:18:50.308Z,16.70
2023-03-01T17:21:19.184Z,16.76
2023-03-01T17:23:48.278Z,16.75
2023-03-01T17:26:17.775Z,16.69
2023-03-01T17:28:52.631Z,16.70
2023-03-01T17:31:22.051Z,16.69
2023-03-01T17:33:51.420Z,16.65
2023-03-01T17:36:20.289Z,16.64
2023-03-01T17:38:50.054Z,16.58
2023-03-01T17:41:19.720Z,16.57
2023-03-01T17:43:48.470Z,16.53
2023-03-01T17:46:17.627Z,16.50
2023-03-01T17:48:46.260Z,16.46
2023-03-01T17:51:15.251Z,16.44
2023-03-01T17:53:43.912Z,16.45
2023-03-01T17:56:12.992Z,16.37
2023-03-01T17:58:41.598Z,16.30
2023-03-01T18:01:13.009Z,16.29
2023-03-01T18:03:42.354Z,16.28
2023-03-01T18:06:17.877Z,16.27
2023-03-01T18:08:46.820Z,16.34
2023-03-01T18:11:16.009Z,16.38
2023-03-01T18:13:45.572Z,16.47
2023-03-01T18:16:20.441Z,16.48
2023-03-01T18:18:53.726Z,16.54
2023-03-01T18:21:23.821Z,16.71
2023-03-01T18:23:52.752Z,16.81
2023-03-01T18:26:23.020Z,16.82
2023-03-01T18:28:52.562Z,16.87
2023-03-01T18:31:22.924Z,16.94
2023-03-01T18:33:55.273Z,16.93
2023-03-01T18:36:30.420Z,16.89
2023-03-01T18:38:59.348Z,16.86
2023-03-01T18:41:28.622Z,16.81
2023-03-01T18:43:57.728Z,16.74
2023-03-01T18:46:27.261Z,16.80
2023-03-01T18:48:56.003Z,16.75
2023-03-01T18:51:27.323Z,16.69
2023-03-01T18:53:58.835Z,16.67
2023-03-01T18:56:30.077Z,16.64
2023-03-01T18:59:00.570Z,16.67
2023-03-01T19:01:30.918Z,16.63
2023-03-01T19:03:59.890Z,16.58
2023-03-01T19:06:34.794Z,16.51
2023-03-01T19:09:04.045Z,16.47
2023-03-01T19:11:33.826Z,16.47
2023-03-01T19:14:02.521Z,16.46
2023-03-01T19:16:32.936Z,16.43
2023-03-01T19:19:03.410Z,16.36
2023-03-01T19:21:32.868Z,16.36
2023-03-01T19:24:02.735Z,16.35
2023-03-01T19:26:32.396Z,16.27
2023-03-01T19:29:01.485Z,16.25
2023-03-01T19:31:31.220Z,16.22
2023-03-01T19:34:10.315Z,16.16
2023-03-01T19:36:42.926Z,16.15
2023-03-01T19:39:13.994Z,16.14
2023-03-01T19:41:43.847Z,16.09
2023-03-01T19:44:12.866Z,16.12
2023-03-01T19:46:42.073Z,16.12
2023-03-01T19:49:10.692Z,16.09
2023-03-01T19:51:39.674Z,16.09
2023-03-01T19:54:10.042Z,16.08
2023-03-01T19:56:40.887Z,16.05
2023-03-01T19:59:09.497Z,16.05
2023-03-01T20:01:42.646Z,16.10
2023-03-01T20:04:11.606Z,16.14
2023-03-01T20:06:41.797Z,16.22
2023-03-01T20:09:21.540Z,16.29
2023-03-01T20:11:51.782Z,16.43
2023-03-01T20:14:23.600Z,16.54
2023-03-01T20:16:53.113Z,16.67
2023-03-01T20:19:22.058Z,16.77
2023-03-01T20:21:51.918Z,16.80
2023-03-01T20:24:21.488Z,16.83
2023-03-01T20:26:51.600Z,16.82
2023-03-01T20:29:20.375Z,16.80
2023-03-01T20:31:50.188Z,16.77
2023-03-01T20:34:20.425Z,16.76
2023-03-01T20:36:50.310Z,16.75
2023-03-01T20:39:20.013Z,16.74
2023-03-01T20:41:50.443Z,16.72
2023-03-01T20:44:20.220Z,16.66
2023-03-01T20:46:52.014Z,16.63
2023-03-01T20:49:22.941Z,16.58
2023-03-01T20:51:55.951Z,16.55
2023-03-01T20:54:25.880Z,16.51
2023-03-01T20:56:55.755Z,16.47
2023-03-01T20:59:24.795Z,16.44
2023-03-01T21:01:54.277Z,16.39
2023-03-01T21:04:23.432Z,16.37
2023-03-01T21:06:53.486Z,16.31
2023-03-01T21:09:23.682Z,16.33
2023-03-01T21:11:52.726Z,16.26
2023-03-01T21:14:22.048Z,16.25
2023-03-01T21:16:51.322Z,16.22
2023-03-01T21:19:23.505Z,16.17
2023-03-01T21:21:53.777Z,16.14
2023-03-01T21:24:22.358Z,16.16
2023-03-01T21:26:51.146Z,16.13
2023-03-01T21:29:19.665Z,16.11
2023-03-01T21:31:48.555Z,16.08
2023-03-01T21:34:17.090Z,16.07
2023-03-01T21:36:46.021Z,16.05
2023-03-01T21:39:15.020Z,16.04
2023-03-01T21:41:43.819Z,16.02
2023-03-01T21:44:12.300Z,15.99
2023-03-01T21:46:41.534Z,15.95
2023-03-01T21:49:11.265Z,15.93
2023-03-01T21:51:40.256Z,15.93
2023-03-01T21:54:10.261Z,15.90
2023-03-01T21:56:39.813Z,15.88
2023-03-01T21:59:16.486Z,15.88
2023-03-01T22:01:45.549Z,15.86
2023-03-01T22:04:14.301Z,15.84
2023-03-01T22:06:45.280Z,15.80
2023-03-01T22:09:19.661Z,15.82
2023-03-01T22:12:02.818Z,15.79
2023-03-01T22:14:31.798Z,15.78
2023-03-01T22:17:00.715Z,15.77
2023-03-01T22:19:29.336Z,15.77
2023-03-01T22:21:58.150Z,15.76
2023-03-01T22:24:26.798Z,15.73
2023-03-01T22:26:55.734Z,15.73
2023-03-01T22:29:29.244Z,15.69
2023-03-01T22:31:58.709Z,15.71
2023-03-01T22:34:27.476Z,15.69
2023-03-01T22:36:56.693Z,15.69
2023-03-01T22:39:25.303Z,15.65
2023-03-01T22:41:54.653Z,15.63
2023-03-01T22:44:23.718Z,15.66
2023-03-01T22:46:52.683Z,15.66
2023-03-01T22:49:21.579Z,15.59
2023-03-01T22:51:50.682Z,15.54
2023-03-01T22:54:19.672Z,15.55
2023-03-01T22:56:48.716Z,15.49
2023-03-01T22:59:23.306Z,15.51
2023-03-01T23:01:53.008Z,15.45
2023-03-01T23:04:22.086Z,15.48
2023-03-01T23:06:50.975Z,15.46
2023-03-01T23:09:26.649Z,15.45
2023-03-01T23:11:55.754Z,15.43
2023-03-01T23:14:25.423Z,15.44
2023-03-01T23:16:54.398Z,15.43
2023-03-01T23:19:23.230Z,15.40
2023-03-01T23:21:54.568Z,15.40
2023-03-01T23:24:24.292Z,15.32
2023-03-01T23:26:55.863Z,15.37
2023-03-01T23:29:24.360Z,15.36
2023-03-01T23:31:56.106Z,15.34
2023-03-01T23:34:25.746Z,15.32
2023-03-01T23:36:55.076Z,15.34
2023-03-01T23:39:23.688Z,15.32
2023-03-01T23:41:52.454Z,15.28
2023-03-01T23:44:21.430Z,15.30
2023-03-01T23:46:50.819Z,15.25
2023-03-01T23:49:20.758Z,15.30
2023-03-01T23:51:49.743Z,15.29
2023-03-01T23:54:21.028Z,15.25
2023-03-01T23:56:50.300Z,15.23
2023-03-01T23:59:22.115Z,15.25
